TimeMST,TemperatureF,Dew PointF,Humidity,Sea Level PressureIn,VisibilityMPH,Wind Direction,Wind SpeedMPH,Gust SpeedMPH,PrecipitationIn,Events,Conditions,WindDirDegrees,DateUTC
1:15 AM,12.6,6.3,76,30.13,10.0,NNW,5.8,-,N/A,,Clear,330,2013-01-10 08:15:00
1:35 AM,14.2,8.1,77,30.12,10.0,NW,6.9,-,N/A,,Clear,310,2013-01-10 08:35:00
1:55 AM,17.4,9.9,72,30.11,10.0,North,3.5,-,N/A,,Clear,360,2013-01-10 08:55:00
2:15 AM,14.7,8.4,76,30.10,10.0,NNE,4.6,-,N/A,,Scattered Clouds,30,2013-01-10 09:15:00
2:35 AM,14.5,8.4,77,30.10,10.0,NE,4.6,-,N/A,,Scattered Clouds,40,2013-01-10 09:35:00
2:55 AM,14.5,9.3,80,30.09,10.0,NE,5.8,-,N/A,,Clear,40,2013-01-10 09:55:00
3:15 AM,14.0,8.8,80,30.08,10.0,Calm,Calm,-,N/A,,Clear,0,2013-01-10 10:15:00
3:35 AM,13.8,8.4,79,30.07,10.0,NE,4.6,-,N/A,,Clear,50,2013-01-10 10:35:00
3:55 AM,14.4,9.3,80,30.06,10.0,NNE,4.6,-,N/A,,Clear,30,2013-01-10 10:55:00
4:15 AM,13.1,8.1,80,30.06,10.0,North,3.5,-,N/A,,Clear,360,2013-01-10 11:15:00
4:35 AM,12.4,7.3,80,30.04,10.0,North,4.6,-,N/A,,Clear,10,2013-01-10 11:35:00
4:55 AM,13.1,8.1,80,30.04,10.0,NNE,4.6,-,N/A,,Clear,30,2013-01-10 11:55:00
5:35 AM,13.1,8.6,82,30.03,10.0,North,4.6,-,N/A,,Clear,360,2013-01-10 12:35:00
5:55 AM,13.6,8.6,80,30.03,10.0,NNW,5.8,-,N/A,,Clear,340,2013-01-10 12:55:00
6:15 AM,14.5,9.1,79,30.03,10.0,Calm,Calm,-,N/A,,Clear,0,2013-01-10 13:15:00
6:35 AM,14.0,9.0,80,30.03,10.0,North,3.5,-,N/A,,Clear,360,2013-01-10 13:35:00
6:55 AM,14.9,10.4,82,30.03,10.0,North,3.5,-,N/A,,Clear,360,2013-01-10 13:55:00
7:35 AM,15.1,9.9,80,30.02,10.0,NNW,5.8,-,N/A,,Clear,330,2013-01-10 14:35:00
7:55 AM,14.2,8.6,78,30.02,10.0,North,4.6,-,N/A,,Clear,350,2013-01-10 14:55:00
8:15 AM,17.8,11.3,76,30.03,10.0,Calm,Calm,-,N/A,,Clear,0,2013-01-10 15:15:00
8:35 AM,22.1,13.1,68,30.03,10.0,Calm,Calm,-,N/A,,Clear,0,2013-01-10 15:35:00
8:55 AM,26.2,14.2,60,30.02,10.0,North,3.5,-,N/A,,Clear,360,2013-01-10 15:55:00
9:15 AM,29.3,14.4,54,30.02,10.0,North,3.5,-,N/A,,Clear,10,2013-01-10 16:15:00
9:35 AM,31.8,14.0,48,30.00,10.0,NNE,4.6,-,N/A,,Clear,30,2013-01-10 16:35:00
9:55 AM,33.8,14.5,45,30.00,10.0,NE,4.6,-,N/A,,Clear,40,2013-01-10 16:55:00
10:15 AM,36.7,14.0,39,30.00,10.0,North,3.5,-,N/A,,Clear,360,2013-01-10 17:15:00
10:35 AM,37.6,13.8,38,30.01,10.0,Calm,Calm,-,N/A,,Clear,0,2013-01-10 17:35:00
10:55 AM,39.7,13.1,34,30.01,10.0,Calm,Calm,-,N/A,,Clear,0,2013-01-10 17:55:00
11:15 AM,41.2,13.5,32,29.99,10.0,Calm,Calm,-,N/A,,Clear,0,2013-01-10 18:15:00
11:35 AM,43.5,13.8,30,29.98,10.0,Calm,Calm,-,N/A,,Clear,0,2013-01-10 18:35:00
11:55 AM,47.1,13.3,26,29.96,10.0,Calm,Calm,-,N/A,,Clear,0,2013-01-10 18:55:00
12:15 PM,48.9,13.6,24,29.96,10.0,SW,3.5,-,N/A,,Clear,230,2013-01-10 19:15:00
12:35 PM,48.0,12.4,24,29.93,10.0,SSE,3.5,-,N/A,,Clear,150,2013-01-10 19:35:00
12:55 PM,47.5,12.6,25,29.92,10.0,South,4.6,-,N/A,,Clear,190,2013-01-10 19:55:00
1:15 PM,47.3,11.8,24,29.92,10.0,SW,4.6,-,N/A,,Clear,220,2013-01-10 20:15:00
1:35 PM,47.7,12.4,24,29.90,10.0,WSW,8.1,-,N/A,,Clear,250,2013-01-10 20:35:00
1:55 PM,49.3,8.2,19,29.89,10.0,West,10.4,-,N/A,,Clear,280,2013-01-10 20:55:00
2:15 PM,50.5,7.2,17,29.89,10.0,West,9.2,-,N/A,,Clear,260,2013-01-10 21:15:00
2:35 PM,52.3,7.7,17,29.88,10.0,SW,8.1,-,N/A,,Clear,220,2013-01-10 21:35:00
2:55 PM,51.3,7.9,17,29.87,10.0,SSW,6.9,-,N/A,,Clear,210,2013-01-10 21:55:00
3:15 PM,51.4,7.7,17,29.87,10.0,SSE,5.8,-,N/A,,Clear,160,2013-01-10 22:15:00
3:35 PM,49.8,7.7,18,29.87,10.0,South,3.5,-,N/A,,Clear,190,2013-01-10 22:35:00
3:55 PM,49.3,8.1,19,29.86,10.0,WSW,4.6,-,N/A,,Clear,250,2013-01-10 22:55:00
4:15 PM,47.3,10.8,23,29.86,10.0,SSW,15.0,-,N/A,,Clear,210,2013-01-10 23:15:00
4:35 PM,45.0,11.5,26,29.87,10.0,SSW,15.0,-,N/A,,Clear,210,2013-01-10 23:35:00
4:55 PM,43.0,11.7,28,29.86,10.0,SSW,15.0,19.6,N/A,,Clear,200,2013-01-10 23:55:00
5:15 PM,41.4,11.7,30,29.86,10.0,South,12.7,-,N/A,,Clear,190,2013-01-11 00:15:00
5:35 PM,40.1,11.8,32,29.85,10.0,South,10.4,-,N/A,,Clear,190,2013-01-11 00:35:00
5:55 PM,40.1,12.2,32,29.85,10.0,South,11.5,-,N/A,,Clear,190,2013-01-11 00:55:00
6:15 PM,39.0,12.4,34,29.85,10.0,SSW,5.8,-,N/A,,Clear,200,2013-01-11 01:15:00
6:35 PM,37.8,12.6,36,29.85,10.0,Calm,Calm,-,N/A,,Clear,0,2013-01-11 01:35:00
6:55 PM,38.3,12.7,35,29.85,10.0,Calm,Calm,-,N/A,,Clear,0,2013-01-11 01:55:00
7:15 PM,38.3,12.7,35,29.86,10.0,Calm,Calm,-,N/A,,Clear,0,2013-01-11 02:15:00
7:35 PM,37.6,12.6,36,29.85,10.0,WSW,5.8,-,N/A,,Clear,250,2013-01-11 02:35:00
7:55 PM,35.4,12.7,39,29.84,10.0,South,3.5,-,N/A,,Clear,170,2013-01-11 02:55:00
8:15 PM,32.0,12.9,45,29.83,10.0,SSE,6.9,-,N/A,,Clear,160,2013-01-11 03:15:00
8:35 PM,34.0,14.2,44,29.83,10.0,SSW,4.6,-,N/A,,Clear,200,2013-01-11 03:35:00
8:55 PM,35.8,14.9,43,29.83,10.0,West,5.8,-,N/A,,Scattered Clouds,260,2013-01-11 03:55:00
9:15 PM,38.3,17.1,42,29.82,10.0,SW,12.7,-,N/A,,Clear,230,2013-01-11 04:15:00
9:35 PM,38.8,17.6,42,29.81,10.0,SW,8.1,-,N/A,,Clear,220,2013-01-11 04:35:00
9:55 PM,39.0,18.1,43,29.81,10.0,SW,8.1,-,N/A,,Clear,220,2013-01-11 04:55:00
10:15 PM,39.4,18.5,43,29.80,10.0,WSW,8.1,-,N/A,,Clear,240,2013-01-11 05:15:00
10:35 PM,41.4,19.9,42,29.79,10.0,South,19.6,-,N/A,,Scattered Clouds,190,2013-01-11 05:35:00
10:55 PM,41.4,20.3,43,29.79,10.0,South,18.4,23.0,N/A,,Scattered Clouds,190,2013-01-11 05:55:00
11:15 PM,41.9,21.7,45,29.78,10.0,SSW,23.0,28.8,N/A,,Overcast,210,2013-01-11 06:15:00
11:35 PM,42.3,21.7,44,29.78,10.0,SSW,17.3,23.0,N/A,,Mostly Cloudy,200,2013-01-11 06:35:00
11:55 PM,41.0,21.7,46,29.76,10.0,SSW,12.7,18.4,N/A,,Mostly Cloudy,200,2013-01-11 06:55:00